createdAt,value
2018-07-30T00:01:12.171Z,99381.00
2018-07-30T00:03:48.172Z,99380.00
2018-07-30T00:06:23.940Z,99382.00
2018-07-30T00:08:59.831Z,99382.00
2018-07-30T00:11:30.750Z,99385.00
2018-07-30T00:14:06.287Z,99381.00
2018-07-30T00:16:37.152Z,99383.00
2018-07-30T00:19:07.585Z,99379.00
2018-07-30T00:21:38.236Z,99377.00
2018-07-30T00:24:09.543Z,99381.00
2018-07-30T00:26:40.208Z,99379.00
2018-07-30T00:29:10.915Z,99383.00
2018-07-30T00:31:42.464Z,99386.00
2018-07-30T00:34:13.121Z,99384.00
2018-07-30T00:36:43.498Z,99382.00
2018-07-30T00:39:14.023Z,99389.00
2018-07-30T00:41:45.052Z,99389.00
2018-07-30T00:44:15.170Z,99394.00
2018-07-30T00:46:45.443Z,99395.00
2018-07-30T00:49:15.877Z,99401.00
2018-07-30T00:51:46.488Z,99399.00
2018-07-30T00:54:17.595Z,99404.00
2018-07-30T00:56:48.236Z,99401.00
2018-07-30T00:59:18.530Z,99399.00
2018-07-30T01:01:49.419Z,99398.00
2018-07-30T01:04:20.105Z,99398.00
2018-07-30T01:06:50.484Z,99396.00
2018-07-30T01:09:21.139Z,99401.00
2018-07-30T01:11:51.855Z,99400.00
2018-07-30T01:14:22.312Z,99401.00
2018-07-30T01:16:52.868Z,99402.00
2018-07-30T01:19:23.596Z,99404.00
2018-07-30T01:21:54.857Z,99404.00
2018-07-30T01:24:26.690Z,99405.00
2018-07-30T01:26:57.640Z,99407.00
2018-07-30T01:29:28.693Z,99405.00
2018-07-30T01:31:59.352Z,99410.00
2018-07-30T01:34:30.508Z,99409.00
2018-07-30T01:37:01.076Z,99410.00
2018-07-30T01:39:32.343Z,99416.00
2018-07-30T01:42:03.305Z,99414.00
2018-07-30T01:44:34.460Z,99418.00
2018-07-30T01:47:05.284Z,99421.00
2018-07-30T01:49:36.096Z,99415.00
2018-07-30T01:52:07.675Z,99420.00
2018-07-30T01:54:38.400Z,99421.00
2018-07-30T01:57:09.064Z,99424.00
2018-07-30T01:59:39.472Z,99421.00
2018-07-30T02:02:10.396Z,99423.00
2018-07-30T02:04:41.324Z,99427.00
2018-07-30T02:07:11.712Z,99424.00
2018-07-30T02:09:42.799Z,99427.00
2018-07-30T02:12:13.420Z,99424.00
2018-07-30T02:14:44.067Z,99425.00
2018-07-30T02:17:14.727Z,99422.00
2018-07-30T02:19:45.196Z,99423.00
2018-07-30T02:22:16.262Z,99425.00
2018-07-30T02:24:47.809Z,99424.00
2018-07-30T02:27:18.500Z,99424.00
2018-07-30T02:29:49.724Z,99424.00
2018-07-30T02:32:19.840Z,99430.00
2018-07-30T02:34:50.424Z,99431.00
2018-07-30T02:37:20.958Z,99436.00
2018-07-30T02:39:51.440Z,99440.00
2018-07-30T02:42:21.876Z,99449.00
2018-07-30T02:44:53.261Z,99449.00
2018-07-30T02:47:23.960Z,99448.00
2018-07-30T02:49:55.116Z,99452.00
2018-07-30T02:52:25.797Z,99448.00
2018-07-30T02:54:56.201Z,99445.00
2018-07-30T02:57:26.769Z,99447.00
2018-07-30T02:59:57.910Z,99452.00
2018-07-30T03:02:28.608Z,99450.00
2018-07-30T03:04:59.316Z,99450.00
2018-07-30T03:07:30.718Z,99450.00
2018-07-30T03:10:01.429Z,99454.00
2018-07-30T03:12:32.555Z,99454.00
2018-07-30T03:15:03.042Z,99458.00
2018-07-30T03:17:33.769Z,99458.00
2018-07-30T03:20:05.192Z,99458.00
2018-07-30T03:22:36.500Z,99460.00
2018-07-30T03:25:08.767Z,99459.00
2018-07-30T03:27:39.436Z,99464.00
2018-07-30T03:30:11.681Z,99466.00
2018-07-30T03:32:42.407Z,99464.00
2018-07-30T03:35:13.236Z,99463.00
2018-07-30T03:37:43.673Z,99463.00
2018-07-30T03:40:14.365Z,99467.00
2018-07-30T03:42:45.572Z,99469.00
2018-07-30T03:45:15.756Z,99468.00
2018-07-30T03:47:46.683Z,99479.00
2018-07-30T03:50:17.632Z,99479.00
2018-07-30T03:52:48.436Z,99480.00
2018-07-30T03:55:19.840Z,99484.00
2018-07-30T03:57:50.851Z,99489.00
2018-07-30T04:00:22.132Z,99493.00
2018-07-30T04:02:53.232Z,99490.00
2018-07-30T04:05:23.735Z,99492.00
2018-07-30T04:07:54.515Z,99495.00
2018-07-30T04:10:25.182Z,99494.00
2018-07-30T04:12:55.908Z,99488.00
2018-07-30T04:15:26.635Z,99487.00
2018-07-30T04:17:57.773Z,99490.00
2018-07-30T04:20:28.242Z,99489.00
2018-07-30T04:22:58.655Z,99488.00
2018-07-30T04:25:29.117Z,99488.00
2018-07-30T04:28:00.049Z,99490.00
2018-07-30T04:30:31.323Z,99494.00
2018-07-30T04:33:03.264Z,99488.00
2018-07-30T04:35:33.936Z,99495.00
2018-07-30T04:38:05.436Z,99491.00
2018-07-30T04:40:35.928Z,99497.00
2018-07-30T04:43:06.897Z,99490.00
2018-07-30T04:45:37.895Z,99489.00
2018-07-30T04:48:08.940Z,99495.00
2018-07-30T04:50:39.429Z,99496.00
2018-07-30T04:53:10.448Z,99496.00
2018-07-30T04:55:41.080Z,99487.00
2018-07-30T04:58:11.380Z,99492.00
2018-07-30T05:00:41.887Z,99494.00
2018-07-30T05:03:12.667Z,99496.00
2018-07-30T05:05:43.050Z,99494.00
2018-07-30T05:08:13.857Z,99495.00
2018-07-30T05:10:44.360Z,99495.00
2018-07-30T05:13:14.906Z,99493.00
2018-07-30T05:15:45.669Z,99495.00
2018-07-30T05:18:16.649Z,99493.00
2018-07-30T05:20:47.469Z,99495.00
2018-07-30T05:23:17.886Z,99498.00
2018-07-30T05:25:49.048Z,99498.00
2018-07-30T05:28:19.716Z,99497.00
2018-07-30T05:30:50.780Z,99493.00
2018-07-30T05:33:21.688Z,99487.00
2018-07-30T05:35:52.231Z,99485.00
2018-07-30T05:38:23.277Z,99483.00
2018-07-30T05:40:54.438Z,99485.00
2018-07-30T05:43:24.840Z,99484.00
2018-07-30T05:45:56.141Z,99485.00
2018-07-30T05:48:27.280Z,99483.00
2018-07-30T05:50:58.013Z,99482.00
2018-07-30T05:53:28.447Z,99481.00
2018-07-30T05:55:58.914Z,99482.00
2018-07-30T05:58:29.640Z,99486.00
2018-07-30T06:00:59.783Z,99482.00
2018-07-30T06:03:30.079Z,99483.00
2018-07-30T06:06:00.471Z,99488.00
2018-07-30T06:08:31.401Z,99484.00
2018-07-30T06:11:02.168Z,99483.00
2018-07-30T06:13:32.269Z,99484.00
2018-07-30T06:16:03.884Z,99487.00
2018-07-30T06:18:35.056Z,99490.00
2018-07-30T06:21:05.814Z,99495.00
2018-07-30T06:23:36.162Z,99491.00
2018-07-30T06:26:06.484Z,99490.00
2018-07-30T06:28:42.572Z,99495.00
2018-07-30T06:31:13.556Z,99495.00
2018-07-30T06:33:43.659Z,99500.00
2018-07-30T06:36:14.478Z,99507.00
2018-07-30T06:38:45.414Z,99494.00
2018-07-30T06:41:15.954Z,99502.00
2018-07-30T06:43:46.875Z,99502.00
2018-07-30T06:46:17.322Z,99507.00
2018-07-30T06:48:47.987Z,99512.00
2018-07-30T06:51:18.784Z,99512.00
2018-07-30T06:53:50.052Z,99515.00
2018-07-30T06:56:20.487Z,99519.00
2018-07-30T06:58:51.616Z,99511.00
2018-07-30T07:01:23.256Z,99516.00
2018-07-30T07:03:54.267Z,99511.00
2018-07-30T07:06:25.778Z,99520.00
2018-07-30T07:08:56.407Z,99520.00
2018-07-30T07:11:27.164Z,99522.00
2018-07-30T07:13:58.429Z,99522.00
2018-07-30T07:16:30.736Z,99524.00
2018-07-30T07:19:02.519Z,99521.00
2018-07-30T07:21:33.818Z,99523.00
2018-07-30T07:24:05.300Z,99523.00
2018-07-30T07:26:36.632Z,99523.00
2018-07-30T07:29:07.894Z,99519.00
2018-07-30T07:31:39.232Z,99524.00
2018-07-30T07:34:10.473Z,99516.00
2018-07-30T07:36:42.028Z,99519.00
2018-07-30T07:39:13.896Z,99520.00
2018-07-30T07:41:45.802Z,99516.00
2018-07-30T07:44:17.044Z,99518.00
2018-07-30T07:46:48.625Z,99518.00
2018-07-30T07:49:19.589Z,99519.00
2018-07-30T07:51:51.669Z,99517.00
2018-07-30T07:54:23.534Z,99519.00
2018-07-30T07:56:56.264Z,99519.00
2018-07-30T07:59:27.800Z,99525.00
2018-07-30T08:01:59.039Z,99521.00
2018-07-30T08:04:29.820Z,99514.00
2018-07-30T08:07:01.013Z,99518.00
2018-07-30T08:09:35.242Z,99517.00
2018-07-30T08:12:06.660Z,99511.00
2018-07-30T08:14:37.527Z,99517.00
2018-07-30T08:17:08.739Z,99517.00
2018-07-30T08:19:39.417Z,99516.00
2018-07-30T08:22:10.319Z,99521.00
2018-07-30T08:24:41.164Z,99521.00
2018-07-30T08:27:12.419Z,99524.00
2018-07-30T08:29:43.657Z,99520.00
2018-07-30T08:32:14.900Z,99519.00
2018-07-30T08:34:46.602Z,99521.00
2018-07-30T08:37:18.345Z,99520.00
2018-07-30T08:39:49.033Z,99522.00
2018-07-30T08:42:20.561Z,99526.00
2018-07-30T08:44:52.147Z,99525.00
2018-07-30T08:47:23.534Z,99523.00
2018-07-30T08:49:54.525Z,99526.00
2018-07-30T08:52:25.489Z,99529.00
2018-07-30T08:54:56.549Z,99529.00
2018-07-30T08:57:27.787Z,99526.00
2018-07-30T08:59:58.996Z,99529.00
2018-07-30T09:02:30.344Z,99522.00
2018-07-30T09:05:01.022Z,99532.00
2018-07-30T09:07:32.283Z,99527.00
2018-07-30T09:10:08.482Z,99518.00
2018-07-30T09:12:39.981Z,99519.00
2018-07-30T09:15:11.108Z,99517.00
2018-07-30T09:17:41.826Z,99518.00
2018-07-30T09:20:12.496Z,99516.00
2018-07-30T09:22:43.810Z,99511.00
2018-07-30T09:25:14.777Z,99513.00
2018-07-30T09:27:45.760Z,99514.00
2018-07-30T09:30:17.352Z,99510.00
2018-07-30T09:32:48.736Z,99513.00
2018-07-30T09:35:20.113Z,99499.00
2018-07-30T09:37:51.436Z,99504.00
2018-07-30T09:40:23.256Z,99499.00
2018-07-30T09:42:54.336Z,99500.00
2018-07-30T09:45:25.582Z,99501.00
2018-07-30T09:47:56.545Z,99502.00
2018-07-30T09:50:27.626Z,99499.00
2018-07-30T09:52:58.875Z,99501.00
2018-07-30T09:55:30.066Z,99493.00
2018-07-30T09:58:01.013Z,99496.00
2018-07-30T10:00:37.776Z,99498.00
2018-07-30T10:03:08.480Z,99495.00
2018-07-30T10:05:39.904Z,99502.00
2018-07-30T10:08:11.203Z,99496.00
2018-07-30T10:10:41.865Z,99489.00
2018-07-30T10:13:13.474Z,99489.00
2018-07-30T10:15:44.439Z,99484.00
2018-07-30T10:18:15.964Z,99481.00
2018-07-30T10:20:47.673Z,99475.00
2018-07-30T10:23:19.568Z,99476.00
2018-07-30T10:25:50.543Z,99470.00
2018-07-30T10:28:21.824Z,99470.00
2018-07-30T10:30:53.338Z,99467.00
2018-07-30T10:33:24.836Z,99469.00
2018-07-30T10:35:56.468Z,99468.00
2018-07-30T10:38:27.777Z,99460.00
2018-07-30T10:40:59.611Z,99466.00
2018-07-30T10:43:31.056Z,99467.00
2018-07-30T10:46:02.525Z,99465.00
2018-07-30T10:48:33.512Z,99470.00
2018-07-30T10:51:04.808Z,99465.00
2018-07-30T10:53:36.367Z,99457.00
2018-07-30T10:56:07.255Z,99456.00
2018-07-30T10:58:38.124Z,99456.00
2018-07-30T11:01:09.148Z,99451.00
2018-07-30T11:03:39.972Z,99451.00
2018-07-30T11:06:11.048Z,99448.00
2018-07-30T11:08:41.854Z,99443.00
2018-07-30T11:11:13.361Z,99437.00
2018-07-30T11:13:45.001Z,99440.00
2018-07-30T11:16:15.647Z,99440.00
2018-07-30T11:18:46.253Z,99438.00
2018-07-30T11:21:17.363Z,99445.00
2018-07-30T11:23:48.298Z,99443.00
2018-07-30T11:26:19.126Z,99447.00
2018-07-30T11:28:50.149Z,99446.00
2018-07-30T11:31:21.357Z,99442.00
2018-07-30T11:33:52.592Z,99436.00
2018-07-30T11:36:23.552Z,99433.00
2018-07-30T11:38:54.800Z,99425.00
2018-07-30T11:41:26.275Z,99426.00
2018-07-30T11:43:57.835Z,99419.00
2018-07-30T11:46:29.280Z,99419.00
2018-07-30T11:49:00.525Z,99409.00
2018-07-30T11:51:31.720Z,99411.00
2018-07-30T11:54:03.097Z,99405.00
2018-07-30T11:56:34.965Z,99417.00
2018-07-30T11:59:06.933Z,99409.00
2018-07-30T12:01:38.292Z,99415.00
2018-07-30T12:04:10.207Z,99410.00
2018-07-30T12:06:41.642Z,99406.00
2018-07-30T12:09:13.444Z,99405.00
2018-07-30T12:11:44.808Z,99402.00
2018-07-30T12:14:16.023Z,99401.00
2018-07-30T12:16:47.147Z,99401.00
2018-07-30T12:19:19.984Z,99403.00
2018-07-30T12:21:52.731Z,99400.00
2018-07-30T12:24:24.297Z,99393.00
2018-07-30T12:26:55.324Z,99384.00
2018-07-30T12:29:27.364Z,99385.00
2018-07-30T12:31:58.188Z,99388.00
2018-07-30T12:34:29.153Z,99384.00
2018-07-30T12:37:00.722Z,99381.00
2018-07-30T12:39:34.720Z,99376.00
2018-07-30T12:42:06.449Z,99381.00
2018-07-30T12:44:38.966Z,99378.00
2018-07-30T12:47:10.429Z,99371.00
2018-07-30T12:49:42.550Z,99376.00
2018-07-30T12:52:16.007Z,99369.00
2018-07-30T12:54:50.907Z,99375.00
2018-07-30T12:57:25.480Z,99372.00
2018-07-30T13:00:01.877Z,99376.00
2018-07-30T13:02:34.212Z,99380.00
2018-07-30T13:05:08.460Z,99380.00
2018-07-30T13:07:42.349Z,99375.00
2018-07-30T13:10:13.645Z,99375.00
2018-07-30T13:12:45.877Z,99371.00
2018-07-30T13:15:17.385Z,99368.00
2018-07-30T13:17:49.332Z,99367.00
2018-07-30T13:20:27.582Z,99363.00
2018-07-30T13:23:03.069Z,99361.00
2018-07-30T13:25:37.653Z,99360.00
2018-07-30T13:28:09.098Z,99358.00
2018-07-30T13:30:40.764Z,99356.00
2018-07-30T13:33:11.976Z,99341.00
2018-07-30T13:35:42.995Z,99341.00
2018-07-30T13:38:14.637Z,99323.00
2018-07-30T13:40:45.928Z,99342.00
2018-07-30T13:43:17.165Z,99337.00
2018-07-30T13:45:48.092Z,99336.00
2018-07-30T13:48:19.403Z,99335.00
2018-07-30T13:50:50.724Z,99335.00
2018-07-30T13:53:21.686Z,99336.00
2018-07-30T13:55:53.604Z,99336.00
2018-07-30T13:58:25.054Z,99328.00
2018-07-30T14:00:56.287Z,99333.00
2018-07-30T14:03:26.947Z,99334.00
2018-07-30T14:05:58.471Z,99339.00
2018-07-30T14:08:29.134Z,99326.00
2018-07-30T14:11:00.585Z,99330.00
2018-07-30T14:13:32.032Z,99322.00
2018-07-30T14:16:03.036Z,99327.00
2018-07-30T14:18:34.420Z,99322.00
2018-07-30T14:21:06.220Z,99320.00
2018-07-30T14:23:37.252Z,99321.00
2018-07-30T14:26:08.500Z,99327.00
2018-07-30T14:28:39.467Z,99320.00
2018-07-30T14:31:10.732Z,99322.00
2018-07-30T14:33:42.792Z,99326.00
2018-07-30T14:36:14.023Z,99323.00
2018-07-30T14:38:45.487Z,99325.00
2018-07-30T14:41:16.816Z,99323.00
2018-07-30T14:43:48.575Z,99320.00
2018-07-30T14:46:19.721Z,99319.00
2018-07-30T14:48:50.560Z,99317.00
2018-07-30T14:51:21.574Z,99318.00
2018-07-30T14:53:53.091Z,99311.00
2018-07-30T14:56:24.372Z,99305.00
2018-07-30T14:58:55.337Z,99304.00
2018-07-30T15:01:26.910Z,99310.00
2018-07-30T15:03:57.878Z,99309.00
2018-07-30T15:06:29.111Z,99307.00
2018-07-30T15:09:00.081Z,99309.00
2018-07-30T15:11:31.089Z,99308.00
2018-07-30T15:14:03.610Z,99305.00
2018-07-30T15:16:34.956Z,99306.00
2018-07-30T15:19:06.235Z,99299.00
2018-07-30T15:21:37.556Z,99294.00
2018-07-30T15:24:08.532Z,99299.00
2018-07-30T15:26:39.552Z,99294.00
2018-07-30T15:29:10.730Z,99298.00
2018-07-30T15:31:42.048Z,99294.00
2018-07-30T15:34:13.361Z,99300.00
2018-07-30T15:36:44.499Z,99295.00
2018-07-30T15:39:15.620Z,99294.00
2018-07-30T15:41:46.644Z,99298.00
2018-07-30T15:44:17.852Z,99293.00
2018-07-30T15:46:49.550Z,99294.00
2018-07-30T15:49:21.394Z,99296.00
2018-07-30T15:51:52.868Z,99300.00
2018-07-30T15:54:23.844Z,99300.00
2018-07-30T15:56:55.484Z,99297.00
2018-07-30T15:59:26.688Z,99299.00
2018-07-30T16:01:57.757Z,99299.00
2018-07-30T16:04:29.261Z,99300.00
2018-07-30T16:07:00.544Z,99299.00
2018-07-30T16:09:31.545Z,99297.00
2018-07-30T16:12:02.849Z,99301.00
2018-07-30T16:14:34.076Z,99292.00
2018-07-30T16:17:05.267Z,99291.00
2018-07-30T16:19:36.909Z,99297.00
2018-07-30T16:22:08.204Z,99295.00
2018-07-30T16:24:39.783Z,99295.00
2018-07-30T16:27:10.727Z,99297.00
2018-07-30T16:29:41.847Z,99297.00
2018-07-30T16:32:13.620Z,99299.00
2018-07-30T16:34:44.291Z,99295.00
2018-07-30T16:37:15.496Z,99300.00
2018-07-30T16:39:47.144Z,99299.00
2018-07-30T16:42:18.287Z,99294.00
2018-07-30T16:44:49.292Z,99295.00
2018-07-30T16:47:20.169Z,99295.00
2018-07-30T16:49:51.061Z,99294.00
2018-07-30T16:52:22.112Z,99295.00
2018-07-30T16:54:53.458Z,99298.00
2018-07-30T16:57:24.611Z,99302.00
2018-07-30T16:59:56.009Z,99304.00
2018-07-30T17:02:27.017Z,99299.00
2018-07-30T17:04:58.025Z,99297.00
2018-07-30T17:07:29.339Z,99303.00
2018-07-30T17:10:00.519Z,99302.00
2018-07-30T17:12:31.735Z,99302.00
2018-07-30T17:15:02.999Z,99303.00
2018-07-30T17:17:34.276Z,99301.00
2018-07-30T17:20:07.384Z,99301.00
2018-07-30T17:22:39.712Z,99301.00
2018-07-30T17:25:10.644Z,99300.00
2018-07-30T17:27:41.776Z,99300.00
2018-07-30T17:30:12.759Z,99307.00
2018-07-30T17:32:43.816Z,99312.00
2018-07-30T17:35:14.759Z,99317.00
2018-07-30T17:37:45.924Z,99312.00
2018-07-30T17:40:16.861Z,99311.00
2018-07-30T17:42:48.166Z,99307.00
2018-07-30T17:45:19.588Z,99306.00
2018-07-30T17:47:51.049Z,99305.00
2018-07-30T17:50:22.279Z,99302.00
2018-07-30T17:52:53.268Z,99302.00
2018-07-30T17:55:24.260Z,99304.00
2018-07-30T17:57:55.473Z,99303.00
2018-07-30T18:00:26.978Z,99303.00
2018-07-30T18:02:57.911Z,99301.00
2018-07-30T18:05:28.857Z,99305.00
2018-07-30T18:07:59.463Z,99303.00
2018-07-30T18:10:30.507Z,99307.00
2018-07-30T18:13:02.221Z,99311.00
2018-07-30T18:15:33.748Z,99316.00
2018-07-30T18:18:05.481Z,99314.00
2018-07-30T18:20:36.932Z,99314.00
2018-07-30T18:23:08.090Z,99320.00
2018-07-30T18:25:38.601Z,99322.00
2018-07-30T18:28:10.215Z,99321.00
2018-07-30T18:30:41.127Z,99329.00
2018-07-30T18:33:12.156Z,99324.00
2018-07-30T18:35:43.344Z,99323.00
2018-07-30T18:38:14.464Z,99323.00
2018-07-30T18:40:45.915Z,99326.00
2018-07-30T18:43:16.688Z,99327.00
2018-07-30T18:45:48.381Z,99334.00
2018-07-30T18:48:19.841Z,99328.00
2018-07-30T18:50:51.580Z,99334.00
2018-07-30T18:53:23.117Z,99339.00
2018-07-30T18:55:54.339Z,99346.00
2018-07-30T18:58:25.156Z,99344.00
2018-07-30T19:00:56.384Z,99346.00
2018-07-30T19:03:28.092Z,99348.00
2018-07-30T19:05:58.731Z,99352.00
2018-07-30T19:08:29.760Z,99357.00
2018-07-30T19:11:01.064Z,99363.00
2018-07-30T19:13:32.900Z,99365.00
2018-07-30T19:16:04.484Z,99369.00
2018-07-30T19:18:35.857Z,99370.00
2018-07-30T19:21:07.474Z,99370.00
2018-07-30T19:23:38.664Z,99373.00
2018-07-30T19:26:09.578Z,99373.00
2018-07-30T19:28:40.641Z,99381.00
2018-07-30T19:31:11.275Z,99383.00
2018-07-30T19:33:41.996Z,99388.00
2018-07-30T19:36:12.691Z,99390.00
2018-07-30T19:38:43.669Z,99397.00
2018-07-30T19:41:14.698Z,99397.00
2018-07-30T19:43:45.647Z,99401.00
2018-07-30T19:46:16.408Z,99402.00
2018-07-30T19:48:47.052Z,99406.00
2018-07-30T19:51:17.624Z,99404.00
2018-07-30T19:53:48.100Z,99409.00
2018-07-30T19:56:18.717Z,99413.00
2018-07-30T19:58:49.757Z,99415.00
2018-07-30T20:01:20.728Z,99415.00
2018-07-30T20:03:51.752Z,99414.00
2018-07-30T20:06:22.824Z,99418.00
2018-07-30T20:08:53.519Z,99414.00
2018-07-30T20:11:24.356Z,99416.00
2018-07-30T20:13:55.000Z,99411.00
2018-07-30T20:16:26.263Z,99416.00
2018-07-30T20:18:57.239Z,99418.00
2018-07-30T20:21:28.343Z,99415.00
2018-07-30T20:23:59.352Z,99421.00
2018-07-30T20:26:30.927Z,99419.00
2018-07-30T20:29:01.337Z,99417.00
2018-07-30T20:31:32.023Z,99415.00
2018-07-30T20:34:02.750Z,99422.00
2018-07-30T20:36:33.796Z,99422.00
2018-07-30T20:39:06.312Z,99423.00
2018-07-30T20:41:37.317Z,99424.00
2018-07-30T20:44:07.647Z,99421.00
2018-07-30T20:46:38.280Z,99427.00
2018-07-30T20:49:09.031Z,99429.00
2018-07-30T20:51:39.149Z,99427.00
2018-07-30T20:54:09.439Z,99429.00
2018-07-30T20:56:39.943Z,99432.00
2018-07-30T20:59:10.695Z,99431.00
2018-07-30T21:01:41.512Z,99432.00
2018-07-30T21:04:12.262Z,99436.00
2018-07-30T21:06:43.198Z,99435.00
2018-07-30T21:09:13.932Z,99440.00
2018-07-30T21:11:45.178Z,99438.00
2018-07-30T21:14:15.903Z,99438.00
2018-07-30T21:16:47.515Z,99440.00
2018-07-30T21:19:17.724Z,99444.00
2018-07-30T21:21:48.803Z,99448.00
2018-07-30T21:24:19.535Z,99443.00
2018-07-30T21:26:50.686Z,99449.00
2018-07-30T21:29:21.088Z,99452.00
2018-07-30T21:31:51.764Z,99453.00
2018-07-30T21:34:22.179Z,99451.00
2018-07-30T21:36:52.926Z,99444.00
2018-07-30T21:39:24.386Z,99445.00
2018-07-30T21:41:55.619Z,99446.00
2018-07-30T21:44:26.743Z,99445.00
2018-07-30T21:46:57.172Z,99446.00
2018-07-30T21:49:27.881Z,99440.00
2018-07-30T21:51:59.083Z,99441.00
2018-07-30T21:54:29.483Z,99443.00
2018-07-30T21:57:00.577Z,99443.00
2018-07-30T21:59:30.973Z,99441.00
2018-07-30T22:02:01.748Z,99440.00
2018-07-30T22:04:32.372Z,99440.00
2018-07-30T22:07:03.292Z,99440.00
2018-07-30T22:09:34.426Z,99436.00
2018-07-30T22:12:05.562Z,99435.00
2018-07-30T22:14:36.299Z,99434.00
2018-07-30T22:17:07.676Z,99432.00
2018-07-30T22:19:38.371Z,99435.00
2018-07-30T22:22:09.078Z,99432.00
2018-07-30T22:24:39.650Z,99440.00
2018-07-30T22:27:10.134Z,99431.00
2018-07-30T22:29:40.592Z,99436.00
2018-07-30T22:32:11.202Z,99437.00
2018-07-30T22:34:41.926Z,99443.00
2018-07-30T22:37:12.851Z,99450.00
2018-07-30T22:39:43.199Z,99444.00
2018-07-30T22:42:13.568Z,99448.00
2018-07-30T22:44:43.928Z,99447.00
2018-07-30T22:47:14.611Z,99447.00
2018-07-30T22:49:45.535Z,99451.00
2018-07-30T22:52:16.180Z,99447.00
2018-07-30T22:54:46.532Z,99445.00
2018-07-30T22:57:17.991Z,99446.00
2018-07-30T22:59:49.031Z,99441.00
2018-07-30T23:02:19.729Z,99446.00
2018-07-30T23:04:51.215Z,99444.00
2018-07-30T23:07:21.590Z,99447.00
2018-07-30T23:09:52.475Z,99445.00
2018-07-30T23:12:23.103Z,99443.00
2018-07-30T23:14:53.779Z,99443.00
2018-07-30T23:17:24.140Z,99445.00
2018-07-30T23:19:54.620Z,99439.00
2018-07-30T23:22:25.211Z,99445.00
2018-07-30T23:24:55.843Z,99445.00
2018-07-30T23:27:26.552Z,99444.00
2018-07-30T23:29:57.067Z,99441.00
2018-07-30T23:32:28.008Z,99444.00
2018-07-30T23:34:58.875Z,99446.00
2018-07-30T23:37:29.572Z,99445.00
2018-07-30T23:40:00.752Z,99444.00
2018-07-30T23:42:31.153Z,99437.00
2018-07-30T23:45:01.500Z,99439.00
2018-07-30T23:47:32.439Z,99436.00
2018-07-30T23:50:03.113Z,99438.00
2018-07-30T23:52:34.477Z,99439.00
2018-07-30T23:55:05.225Z,99440.00
2018-07-30T23:57:35.984Z,99442.00
